createdAt,value
2019-03-01T00:01:59.226Z,79.26
2019-03-01T00:04:34.533Z,79.20
2019-03-01T00:07:40.450Z,79.92
2019-03-01T00:10:34.551Z,79.44
2019-03-01T00:13:24.004Z,79.60
2019-03-01T00:16:11.703Z,79.96
2019-03-01T00:18:50.338Z,80.06
2019-03-01T00:21:25.769Z,79.91
2019-03-01T00:24:09.807Z,80.36
2019-03-01T00:26:45.356Z,80.49
2019-03-01T00:29:38.492Z,80.47
2019-03-01T00:32:19.799Z,80.62
2019-03-01T00:35:18.206Z,80.33
2019-03-01T00:37:53.672Z,79.91
2019-03-01T00:40:32.140Z,79.22
2019-03-01T00:43:04.837Z,79.29
2019-03-01T00:45:34.465Z,79.74
2019-03-01T00:48:04.132Z,78.99
2019-03-01T00:50:33.750Z,79.53
2019-03-01T00:53:03.432Z,79.42
2019-03-01T00:55:33.087Z,79.61
2019-03-01T00:58:02.730Z,79.70
2019-03-01T01:00:38.418Z,79.81
2019-03-01T01:03:08.043Z,80.01
2019-03-01T01:05:37.701Z,80.19
2019-03-01T01:08:07.353Z,80.43
2019-03-01T01:10:37.080Z,80.31
2019-03-01T01:13:06.698Z,80.17
2019-03-01T01:15:36.369Z,80.45
2019-03-01T01:18:06.087Z,80.36
2019-03-01T01:20:35.721Z,79.98
2019-03-01T01:23:05.350Z,79.89
2019-03-01T01:25:40.137Z,79.75
2019-03-01T01:28:09.804Z,79.92
2019-03-01T01:30:39.496Z,79.88
2019-03-01T01:33:09.132Z,80.23
2019-03-01T01:35:38.773Z,80.39
2019-03-01T01:38:08.396Z,80.71
2019-03-01T01:40:38.043Z,79.79
2019-03-01T01:43:07.699Z,80.14
2019-03-01T01:45:37.406Z,80.09
2019-03-01T01:48:07.043Z,79.85
2019-03-01T01:50:36.677Z,79.63
2019-03-01T01:53:06.312Z,79.89
2019-03-01T01:55:35.970Z,79.60
2019-03-01T01:58:05.605Z,79.79
2019-03-01T02:00:35.402Z,79.81
2019-03-01T02:03:05.124Z,79.70
2019-03-01T02:05:34.768Z,80.28
2019-03-01T02:08:04.417Z,80.21
2019-03-01T02:10:35.599Z,80.46
2019-03-01T02:13:05.380Z,80.54
2019-03-01T02:15:35.067Z,80.87
2019-03-01T02:18:05.047Z,80.95
2019-03-01T02:20:34.683Z,80.98
2019-03-01T02:23:04.323Z,81.11
2019-03-01T02:25:35.792Z,81.09
2019-03-01T02:28:05.424Z,80.58
2019-03-01T02:30:42.903Z,79.90
2019-03-01T02:33:12.549Z,80.51
2019-03-01T02:35:42.506Z,80.29
2019-03-01T02:38:12.261Z,80.43
2019-03-01T02:40:41.906Z,80.03
2019-03-01T02:43:11.590Z,79.80
2019-03-01T02:45:41.320Z,79.59
2019-03-01T02:48:10.957Z,79.65
2019-03-01T02:50:40.625Z,79.57
2019-03-01T02:53:10.293Z,79.57
2019-03-01T02:55:39.916Z,79.51
2019-03-01T02:58:09.584Z,80.06
2019-03-01T03:00:39.222Z,80.06
2019-03-01T03:03:08.935Z,80.29
2019-03-01T03:05:40.227Z,80.06
2019-03-01T03:08:11.135Z,79.84
2019-03-01T03:10:40.926Z,80.04
2019-03-01T03:13:10.770Z,80.10
2019-03-01T03:15:42.416Z,79.93
2019-03-01T03:18:12.339Z,80.38
2019-03-01T03:20:42.153Z,80.38
2019-03-01T03:23:12.008Z,80.57
2019-03-01T03:25:42.273Z,80.18
2019-03-01T03:28:12.017Z,80.25
2019-03-01T03:30:41.697Z,79.69
2019-03-01T03:33:11.393Z,79.76
2019-03-01T03:35:41.029Z,79.36
2019-03-01T03:38:10.688Z,79.23
2019-03-01T03:40:41.366Z,79.08
2019-03-01T03:43:11.012Z,79.43
2019-03-01T03:45:40.654Z,79.08
2019-03-01T03:48:11.138Z,78.66
2019-03-01T03:50:40.833Z,79.59
2019-03-01T03:53:10.475Z,78.81
2019-03-01T03:55:40.149Z,78.85
2019-03-01T03:58:09.749Z,79.23
2019-03-01T04:00:39.382Z,79.45
2019-03-01T04:03:09.345Z,79.57
2019-03-01T04:05:39.057Z,79.97
2019-03-01T04:08:08.775Z,80.12
2019-03-01T04:10:38.435Z,80.08
2019-03-01T04:13:08.116Z,80.31
2019-03-01T04:15:40.776Z,80.44
2019-03-01T04:18:10.459Z,80.45
2019-03-01T04:20:40.112Z,80.71
2019-03-01T04:23:09.784Z,80.75
2019-03-01T04:25:39.438Z,79.95
2019-03-01T04:28:09.080Z,79.76
2019-03-01T04:30:38.799Z,80.00
2019-03-01T04:33:08.436Z,79.74
2019-03-01T04:35:38.059Z,79.92
2019-03-01T04:38:07.771Z,79.89
2019-03-01T04:40:37.479Z,80.14
2019-03-01T04:43:07.147Z,79.88
2019-03-01T04:45:36.783Z,79.96
2019-03-01T04:48:06.484Z,79.57
2019-03-01T04:50:36.074Z,79.20
2019-03-01T04:53:05.758Z,79.33
2019-03-01T04:55:35.398Z,78.54
2019-03-01T04:58:05.126Z,78.72
2019-03-01T05:00:34.805Z,78.73
2019-03-01T05:03:04.806Z,79.17
2019-03-01T05:05:34.499Z,77.52
2019-03-01T05:08:04.176Z,77.27
2019-03-01T05:10:33.856Z,75.97
2019-03-01T05:13:03.488Z,76.78
2019-03-01T05:15:33.160Z,76.56
2019-03-01T05:18:02.787Z,76.61
2019-03-01T05:20:32.429Z,77.03
2019-03-01T05:23:02.132Z,76.78
2019-03-01T05:25:31.814Z,76.90
2019-03-01T05:28:01.504Z,77.68
2019-03-01T05:30:31.121Z,77.60
2019-03-01T05:33:00.812Z,76.87
2019-03-01T05:35:30.488Z,76.11
2019-03-01T05:38:00.114Z,76.82
2019-03-01T05:40:35.447Z,76.40
2019-03-01T05:43:05.121Z,76.26
2019-03-01T05:45:34.762Z,75.94
2019-03-01T05:48:04.402Z,75.95
2019-03-01T05:50:34.050Z,75.76
2019-03-01T05:53:03.704Z,75.69
2019-03-01T05:55:33.491Z,75.78
2019-03-01T05:58:31.835Z,75.47
2019-03-01T06:01:07.481Z,75.42
2019-03-01T06:03:49.038Z,75.39
2019-03-01T06:06:36.527Z,75.59
2019-03-01T06:09:24.322Z,76.11
2019-03-01T06:12:19.933Z,75.61
2019-03-01T06:15:24.705Z,75.42
2019-03-01T06:18:27.753Z,75.06
2019-03-01T06:21:18.418Z,75.17
2019-03-01T06:24:10.660Z,75.89
2019-03-01T06:27:06.196Z,75.42
2019-03-01T06:29:38.945Z,75.22
2019-03-01T06:32:30.088Z,75.47
2019-03-01T06:35:11.805Z,75.45
2019-03-01T06:38:04.023Z,75.61
2019-03-01T06:40:47.048Z,75.92
2019-03-01T06:43:31.666Z,75.51
2019-03-01T06:46:10.388Z,75.27
2019-03-01T06:48:47.510Z,74.80
2019-03-01T06:51:28.374Z,74.56
2019-03-01T06:53:50.219Z,74.53
2019-03-01T06:56:21.571Z,74.21
2019-03-01T06:58:51.247Z,74.97
2019-03-01T07:01:22.663Z,75.40
2019-03-01T07:03:53.579Z,75.63
2019-03-01T07:06:23.228Z,75.27
2019-03-01T07:08:52.925Z,75.47
2019-03-01T07:11:22.607Z,75.81
2019-03-01T07:13:52.275Z,75.58
2019-03-01T07:16:21.965Z,75.64
2019-03-01T07:18:51.646Z,75.58
2019-03-01T07:21:21.373Z,75.37
2019-03-01T07:23:51.278Z,75.48
2019-03-01T07:26:21.243Z,74.55
2019-03-01T07:28:50.945Z,73.87
2019-03-01T07:31:20.792Z,74.58
2019-03-01T07:33:50.553Z,74.66
2019-03-01T07:36:20.289Z,74.94
2019-03-01T07:38:49.961Z,74.35
2019-03-01T07:41:19.783Z,74.49
2019-03-01T07:43:49.495Z,74.34
2019-03-01T07:46:19.335Z,74.68
2019-03-01T07:48:49.056Z,74.80
2019-03-01T07:51:18.725Z,74.99
2019-03-01T07:53:48.407Z,74.88
2019-03-01T07:56:18.100Z,74.58
2019-03-01T07:58:47.850Z,74.00
2019-03-01T08:01:17.700Z,74.31
2019-03-01T08:03:52.274Z,74.15
2019-03-01T08:06:18.858Z,73.78
2019-03-01T08:08:48.633Z,73.56
2019-03-01T08:11:18.389Z,73.73
2019-03-01T08:13:49.420Z,73.56
2019-03-01T08:16:20.167Z,73.19
2019-03-01T08:18:51.213Z,72.76
2019-03-01T08:21:21.035Z,72.97
2019-03-01T08:23:50.852Z,72.11
2019-03-01T08:26:20.643Z,73.19
2019-03-01T08:28:50.420Z,72.85
2019-03-01T08:31:20.971Z,72.83
2019-03-01T08:33:51.911Z,73.44
2019-03-01T08:36:21.701Z,72.36
2019-03-01T08:38:51.427Z,73.01
2019-03-01T08:41:21.613Z,72.62
2019-03-01T08:43:52.660Z,72.28
2019-03-01T08:46:22.394Z,72.51
2019-03-01T08:48:52.087Z,72.31
2019-03-01T08:51:22.780Z,71.95
2019-03-01T08:53:53.339Z,70.84
2019-03-01T08:56:26.177Z,70.76
2019-03-01T08:58:54.672Z,71.05
2019-03-01T09:01:25.979Z,71.52
2019-03-01T09:04:07.256Z,71.79
2019-03-01T09:06:37.033Z,70.74
2019-03-01T09:09:08.596Z,70.63
2019-03-01T09:11:41.761Z,70.35
2019-03-01T09:14:10.094Z,70.64
2019-03-01T09:16:41.064Z,70.63
2019-03-01T09:19:11.058Z,70.84
2019-03-01T09:21:40.780Z,71.06
2019-03-01T09:24:10.519Z,71.00
2019-03-01T09:26:40.290Z,70.58
2019-03-01T09:29:12.996Z,70.69
2019-03-01T09:31:41.525Z,70.13
2019-03-01T09:34:11.277Z,70.73
2019-03-01T09:36:42.681Z,69.87
2019-03-01T09:39:14.433Z,69.01
2019-03-01T09:41:43.967Z,68.23
2019-03-01T09:44:13.703Z,68.86
2019-03-01T09:46:43.447Z,68.96
2019-03-01T09:49:13.172Z,69.74
2019-03-01T09:51:43.703Z,69.80
2019-03-01T09:54:14.497Z,69.61
2019-03-01T09:56:44.524Z,68.81
2019-03-01T09:59:14.474Z,68.86
2019-03-01T10:01:44.173Z,68.58
2019-03-01T10:04:13.869Z,69.18
2019-03-01T10:06:43.754Z,68.01
2019-03-01T10:09:13.550Z,67.88
2019-03-01T10:11:43.276Z,68.38
2019-03-01T10:14:13.005Z,68.02
2019-03-01T10:16:42.734Z,68.09
2019-03-01T10:19:12.573Z,67.95
2019-03-01T10:21:42.391Z,68.12
2019-03-01T10:24:12.246Z,68.34
2019-03-01T10:26:41.994Z,67.33
2019-03-01T10:29:11.822Z,67.53
2019-03-01T10:31:42.137Z,66.65
2019-03-01T10:34:11.864Z,67.32
2019-03-01T10:36:41.602Z,67.24
2019-03-01T10:39:13.454Z,66.38
2019-03-01T10:41:43.259Z,65.54
2019-03-01T10:44:13.036Z,66.04
2019-03-01T10:46:42.863Z,66.52
2019-03-01T10:49:12.705Z,65.57
2019-03-01T10:51:42.462Z,65.50
2019-03-01T10:54:12.241Z,66.09
2019-03-01T10:56:41.996Z,66.06
2019-03-01T10:59:11.735Z,66.01
2019-03-01T11:01:41.466Z,66.29
2019-03-01T11:04:11.184Z,65.38
2019-03-01T11:06:41.127Z,65.28
2019-03-01T11:09:10.890Z,65.28
2019-03-01T11:11:41.267Z,66.09
2019-03-01T11:14:11.183Z,65.69
2019-03-01T11:16:40.867Z,65.72
2019-03-01T11:19:10.609Z,66.22
2019-03-01T11:21:40.336Z,65.92
2019-03-01T11:24:10.090Z,66.28
2019-03-01T11:26:39.751Z,65.82
2019-03-01T11:29:09.513Z,66.81
2019-03-01T11:31:39.189Z,66.95
2019-03-01T11:34:08.958Z,65.67
2019-03-01T11:36:38.625Z,66.46
2019-03-01T11:39:08.831Z,65.90
2019-03-01T11:41:38.759Z,65.06
2019-03-01T11:44:08.694Z,64.92
2019-03-01T11:46:38.517Z,65.85
2019-03-01T11:49:08.308Z,65.08
2019-03-01T11:51:37.967Z,63.89
2019-03-01T11:54:09.494Z,64.62
2019-03-01T11:56:39.212Z,63.90
2019-03-01T11:59:08.933Z,64.11
2019-03-01T12:01:38.682Z,63.66
2019-03-01T12:04:08.406Z,63.67
2019-03-01T12:06:38.128Z,64.29
2019-03-01T12:09:08.159Z,64.34
2019-03-01T12:11:37.974Z,64.42
2019-03-01T12:14:07.755Z,64.66
2019-03-01T12:16:37.452Z,64.06
2019-03-01T12:19:07.220Z,64.00
2019-03-01T12:21:36.961Z,62.86
2019-03-01T12:24:06.792Z,64.01
2019-03-01T12:26:36.435Z,63.29
2019-03-01T12:29:08.633Z,63.49
2019-03-01T12:31:38.627Z,63.97
2019-03-01T12:34:08.291Z,63.32
2019-03-01T12:36:38.042Z,63.96
2019-03-01T12:39:09.921Z,63.68
2019-03-01T12:41:39.932Z,63.26
2019-03-01T12:44:09.804Z,63.08
2019-03-01T12:46:39.505Z,62.23
2019-03-01T12:49:09.194Z,62.45
2019-03-01T12:51:38.975Z,63.38
2019-03-01T12:54:08.643Z,62.67
2019-03-01T12:56:38.327Z,63.15
2019-03-01T12:59:07.983Z,63.71
2019-03-01T13:01:37.723Z,64.26
2019-03-01T13:04:07.475Z,64.19
2019-03-01T13:06:38.926Z,64.46
2019-03-01T13:09:11.934Z,64.80
2019-03-01T13:11:41.641Z,64.40
2019-03-01T13:14:11.625Z,63.48
2019-03-01T13:16:41.438Z,63.30
2019-03-01T13:19:11.181Z,63.17
2019-03-01T13:21:41.330Z,63.85
2019-03-01T13:24:12.681Z,62.97
2019-03-01T13:26:43.016Z,63.19
2019-03-01T13:29:12.698Z,62.87
2019-03-01T13:31:43.968Z,63.37
2019-03-01T13:34:14.496Z,63.34
2019-03-01T13:36:44.259Z,63.84
2019-03-01T13:39:13.978Z,63.05
2019-03-01T13:41:43.724Z,62.56
2019-03-01T13:44:13.407Z,63.42
2019-03-01T13:46:43.149Z,63.01
2019-03-01T13:49:12.882Z,63.08
2019-03-01T13:51:43.137Z,63.59
2019-03-01T13:54:12.922Z,62.90
2019-03-01T13:56:42.654Z,62.48
2019-03-01T13:59:12.332Z,62.60
2019-03-01T14:01:42.053Z,63.00
2019-03-01T14:04:11.758Z,61.55
2019-03-01T14:06:41.493Z,62.57
2019-03-01T14:09:12.590Z,62.11
2019-03-01T14:11:42.423Z,62.11
2019-03-01T14:14:12.111Z,62.50
2019-03-01T14:16:41.852Z,61.99
2019-03-01T14:19:11.635Z,61.77
2019-03-01T14:21:41.336Z,62.21
2019-03-01T14:24:11.099Z,61.83
2019-03-01T14:26:40.772Z,61.26
2019-03-01T14:29:12.799Z,61.23
2019-03-01T14:31:42.985Z,60.00
2019-03-01T14:34:13.527Z,61.35
2019-03-01T14:36:43.944Z,61.10
2019-03-01T14:39:16.291Z,62.43
2019-03-01T14:41:46.002Z,62.85
2019-03-01T14:44:15.760Z,62.96
2019-03-01T14:46:45.486Z,63.11
2019-03-01T14:49:15.165Z,62.30
2019-03-01T14:51:46.908Z,63.24
2019-03-01T14:54:16.519Z,61.84
2019-03-01T14:56:47.052Z,61.62
2019-03-01T14:59:38.345Z,62.30
2019-03-01T15:02:14.139Z,61.47
2019-03-01T15:04:44.299Z,61.32
2019-03-01T15:07:14.038Z,60.62
2019-03-01T15:09:43.838Z,60.38
2019-03-01T15:12:19.710Z,60.95
2019-03-01T15:14:49.595Z,60.90
2019-03-01T15:17:18.386Z,61.57
2019-03-01T15:19:48.208Z,61.35
2019-03-01T15:22:17.932Z,60.94
2019-03-01T15:24:47.834Z,61.04
2019-03-01T15:27:17.607Z,61.30
2019-03-01T15:29:47.302Z,61.54
2019-03-01T15:32:23.116Z,61.79
2019-03-01T15:34:52.838Z,61.87
2019-03-01T15:37:22.675Z,62.38
2019-03-01T15:39:54.324Z,62.49
2019-03-01T15:42:29.393Z,62.54
2019-03-01T15:45:01.714Z,63.08
2019-03-01T15:47:30.503Z,62.82
2019-03-01T15:50:00.295Z,63.08
2019-03-01T15:52:29.957Z,62.67
2019-03-01T15:54:59.718Z,63.36
2019-03-01T15:57:29.378Z,64.05
2019-03-01T16:00:08.123Z,64.10
2019-03-01T16:02:41.343Z,64.30
2019-03-01T16:05:12.850Z,65.01
2019-03-01T16:07:42.985Z,65.72
2019-03-01T16:10:20.745Z,64.75
2019-03-01T16:12:50.475Z,64.87
2019-03-01T16:15:20.200Z,64.92
2019-03-01T16:17:49.869Z,66.10
2019-03-01T16:20:21.602Z,66.15
2019-03-01T16:22:54.055Z,66.59
2019-03-01T16:25:22.753Z,67.09
2019-03-01T16:27:54.245Z,67.62
2019-03-01T16:30:23.917Z,67.92
2019-03-01T16:32:53.651Z,67.99
2019-03-01T16:35:23.451Z,68.10
2019-03-01T16:37:57.886Z,68.37
2019-03-01T16:40:26.331Z,68.45
2019-03-01T16:42:56.104Z,68.21
2019-03-01T16:45:26.031Z,68.30
2019-03-01T16:48:04.890Z,68.39
2019-03-01T16:50:34.562Z,68.07
2019-03-01T16:53:05.427Z,67.77
2019-03-01T16:55:35.208Z,67.64
2019-03-01T16:58:07.127Z,67.70
2019-03-01T17:00:36.311Z,67.92
2019-03-01T17:03:17.995Z,68.04
2019-03-01T17:05:47.596Z,68.18
2019-03-01T17:08:17.297Z,68.36
2019-03-01T17:10:46.968Z,68.77
2019-03-01T17:13:16.698Z,68.61
2019-03-01T17:15:48.512Z,68.89
2019-03-01T17:18:18.005Z,69.07
2019-03-01T17:20:47.742Z,68.90
2019-03-01T17:23:17.667Z,69.36
2019-03-01T17:25:47.755Z,69.12
2019-03-01T17:28:22.608Z,69.42
2019-03-01T17:30:50.697Z,69.94
2019-03-01T17:33:20.430Z,69.98
2019-03-01T17:38:33.873Z,70.35
2019-03-01T17:41:06.250Z,70.23
2019-03-01T17:43:35.932Z,70.37
2019-03-01T17:46:05.659Z,70.59
2019-03-01T17:48:35.476Z,70.82
2019-03-01T17:51:05.390Z,70.91
2019-03-01T17:53:35.076Z,70.99
2019-03-01T17:56:04.842Z,71.62
2019-03-01T17:58:34.570Z,71.91
2019-03-01T18:01:04.534Z,72.26
2019-03-01T18:03:34.188Z,72.25
2019-03-01T18:06:04.085Z,72.46
2019-03-01T18:08:35.874Z,72.66
2019-03-01T18:11:08.293Z,73.48
2019-03-01T18:13:36.771Z,73.46
2019-03-01T18:16:06.582Z,73.54
2019-03-01T18:18:36.409Z,73.79
2019-03-01T18:21:10.231Z,73.64
2019-03-01T18:23:39.497Z,73.72
2019-03-01T18:26:09.133Z,74.12
2019-03-01T18:28:38.964Z,74.01
2019-03-01T18:31:08.866Z,74.39
2019-03-01T18:33:38.697Z,74.63
2019-03-01T18:36:08.441Z,74.77
2019-03-01T18:38:38.230Z,74.79
2019-03-01T18:41:07.906Z,75.04
2019-03-01T18:43:37.832Z,75.12
2019-03-01T18:46:07.545Z,75.26
2019-03-01T18:48:40.636Z,75.89
2019-03-01T18:51:09.740Z,75.91
2019-03-01T18:53:39.572Z,76.01
2019-03-01T18:56:09.313Z,75.92
2019-03-01T18:58:39.083Z,76.51
2019-03-01T19:01:11.673Z,76.54
2019-03-01T19:03:41.593Z,76.51
2019-03-01T19:06:16.221Z,76.66
2019-03-01T19:08:44.336Z,77.03
2019-03-01T19:11:14.402Z,77.14
2019-03-01T19:13:44.178Z,77.45
2019-03-01T19:16:13.848Z,77.51
2019-03-01T19:18:43.571Z,77.96
2019-03-01T19:21:13.971Z,78.20
2019-03-01T19:23:44.819Z,78.42
2019-03-01T19:26:14.508Z,78.89
2019-03-01T19:28:44.223Z,78.84
2019-03-01T19:31:14.259Z,79.37
2019-03-01T19:33:44.421Z,79.28
2019-03-01T19:36:14.552Z,79.37
2019-03-01T19:38:46.409Z,79.69
2019-03-01T19:41:20.050Z,79.61
2019-03-01T19:43:54.873Z,79.99
2019-03-01T19:46:21.297Z,80.03
2019-03-01T19:48:51.399Z,80.05
2019-03-01T19:51:22.025Z,80.06
2019-03-01T19:53:52.018Z,80.89
2019-03-01T19:56:25.783Z,80.57
2019-03-01T19:58:54.767Z,80.56
2019-03-01T20:01:25.218Z,80.84
2019-03-01T20:03:57.053Z,80.72
2019-03-01T20:06:26.500Z,80.39
2019-03-01T20:08:56.294Z,80.65
2019-03-01T20:11:27.517Z,81.02
2019-03-01T20:13:57.396Z,80.70
2019-03-01T20:16:27.294Z,81.02
2019-03-01T20:18:57.340Z,81.28
2019-03-01T20:21:27.488Z,81.05
2019-03-01T20:24:01.832Z,81.22
2019-03-01T20:26:30.662Z,81.61
2019-03-01T20:29:00.383Z,81.86
2019-03-01T20:31:30.179Z,82.04
2019-03-01T20:34:01.814Z,82.38
2019-03-01T20:36:31.602Z,82.24
2019-03-01T20:39:01.394Z,82.32
2019-03-01T20:41:31.456Z,82.30
2019-03-01T20:44:01.505Z,82.02
2019-03-01T20:46:31.270Z,81.84
2019-03-01T20:49:03.873Z,82.19
2019-03-01T20:51:32.554Z,82.21
2019-03-01T20:54:02.373Z,82.27
2019-03-01T20:56:32.206Z,82.15
2019-03-01T20:59:01.954Z,82.32
2019-03-01T21:01:33.726Z,82.21
2019-03-01T21:04:04.869Z,82.16
2019-03-01T21:06:37.414Z,82.16
2019-03-01T21:09:06.989Z,81.95
2019-03-01T21:11:36.904Z,82.13
2019-03-01T21:14:06.641Z,82.27
2019-03-01T21:16:36.557Z,82.23
2019-03-01T21:19:08.827Z,82.05
2019-03-01T21:21:37.897Z,82.09
2019-03-01T21:24:10.837Z,81.80
2019-03-01T21:26:40.554Z,81.94
2019-03-01T21:29:12.437Z,81.96
2019-03-01T21:31:41.893Z,81.79
2019-03-01T21:34:11.599Z,81.75
2019-03-01T21:36:41.380Z,81.63
2019-03-01T21:39:11.388Z,81.57
2019-03-01T21:41:41.473Z,81.69
2019-03-01T21:44:13.626Z,81.69
2019-03-01T21:46:43.685Z,81.81
2019-03-01T21:49:13.577Z,81.89
2019-03-01T21:51:43.739Z,81.86
2019-03-01T21:54:16.487Z,81.88
2019-03-01T21:56:55.372Z,81.76
2019-03-01T21:59:18.561Z,81.90
2019-03-01T22:01:48.503Z,81.97
2019-03-01T22:04:18.148Z,82.07
2019-03-01T22:06:47.916Z,81.96
2019-03-01T22:09:20.642Z,81.93
2019-03-01T22:11:50.102Z,82.21
2019-03-01T22:14:19.804Z,82.37
2019-03-01T22:16:49.554Z,82.43
2019-03-01T22:19:19.225Z,82.46
2019-03-01T22:21:48.962Z,82.73
2019-03-01T22:24:18.599Z,82.78
2019-03-01T22:26:49.567Z,82.87
2019-03-01T22:29:20.170Z,82.65
2019-03-01T22:31:49.865Z,82.75
2019-03-01T22:34:19.811Z,82.71
2019-03-01T22:36:52.891Z,82.77
2019-03-01T22:39:21.010Z,83.04
2019-03-01T22:41:50.688Z,83.12
2019-03-01T22:44:20.501Z,83.25
2019-03-01T22:46:50.646Z,83.25
2019-03-01T22:49:20.373Z,83.02
2019-03-01T22:51:52.904Z,83.13
2019-03-01T22:54:21.604Z,83.35
2019-03-01T22:56:51.468Z,83.56
2019-03-01T22:59:21.156Z,83.57
2019-03-01T23:01:51.015Z,83.61
2019-03-01T23:04:20.866Z,83.75
2019-03-01T23:07:01.755Z,83.81
2019-03-01T23:09:33.966Z,84.04
2019-03-01T23:12:04.623Z,84.03
2019-03-01T23:14:35.174Z,84.37
2019-03-01T23:17:04.959Z,84.51
2019-03-01T23:19:36.262Z,84.19
2019-03-01T23:22:07.657Z,84.41
2019-03-01T23:24:43.375Z,84.29
2019-03-01T23:27:13.486Z,84.71
2019-03-01T23:29:43.227Z,84.62
2019-03-01T23:32:15.454Z,83.96
2019-03-01T23:34:44.485Z,84.58
2019-03-01T23:37:14.530Z,84.88
2019-03-01T23:39:44.622Z,84.78
2019-03-01T23:42:17.328Z,84.66
2019-03-01T23:44:46.284Z,84.55
2019-03-01T23:47:15.966Z,84.42
2019-03-01T23:49:45.661Z,84.46
2019-03-01T23:52:15.480Z,84.61
2019-03-01T23:54:45.767Z,84.72
2019-03-01T23:57:16.870Z,84.49
2019-03-01T23:59:46.846Z,84.87
